createdAt,value
2019-06-01T00:00:37.942Z,1018.44
2019-06-01T00:01:38.241Z,1018.37
2019-06-01T00:02:38.468Z,1018.39
2019-06-01T00:03:38.217Z,1018.35
2019-06-01T00:04:38.544Z,1018.34
2019-06-01T00:05:37.067Z,1018.38
2019-06-01T00:06:38.533Z,1018.35
2019-06-01T00:07:37.028Z,1018.36
2019-06-01T00:08:37.037Z,1018.35
2019-06-01T00:09:37.003Z,1018.31
2019-06-01T00:10:36.993Z,1018.23
2019-06-01T00:11:36.999Z,1018.32
2019-06-01T00:12:36.982Z,1018.29
2019-06-01T00:13:36.966Z,1018.27
2019-06-01T00:14:37.924Z,1018.31
2019-06-01T00:15:36.946Z,1018.28
2019-06-01T00:16:36.924Z,1018.23
2019-06-01T00:17:36.938Z,1018.26
2019-06-01T00:18:36.911Z,1018.15
2019-06-01T00:19:37.900Z,1018.24
2019-06-01T00:20:36.888Z,1018.15
2019-06-01T00:21:37.394Z,1018.25
2019-06-01T00:22:36.917Z,1018.31
2019-06-01T00:23:37.404Z,1018.28
2019-06-01T00:24:37.391Z,1018.27
2019-06-01T00:25:36.826Z,1018.18
2019-06-01T00:26:36.828Z,1018.22
2019-06-01T00:27:36.941Z,1018.15
2019-06-01T00:28:37.386Z,1018.19
2019-06-01T00:29:37.383Z,1018.21
2019-06-01T00:30:37.394Z,1018.21
2019-06-01T00:31:37.403Z,1018.21
2019-06-01T00:32:36.911Z,1018.22
2019-06-01T00:33:37.397Z,1018.28
2019-06-01T00:34:36.756Z,1018.20
2019-06-01T00:35:37.421Z,1018.20
2019-06-01T00:36:36.707Z,1018.15
2019-06-01T00:37:36.713Z,1018.24
2019-06-01T00:38:36.703Z,1018.21
2019-06-01T00:39:37.397Z,1018.24
2019-06-01T00:40:36.685Z,1018.17
2019-06-01T00:41:36.672Z,1018.22
2019-06-01T00:42:36.906Z,1018.23
2019-06-01T00:43:36.635Z,1018.24
2019-06-01T00:44:37.433Z,1018.24
2019-06-01T00:45:37.392Z,1018.27
2019-06-01T00:46:37.400Z,1018.23
2019-06-01T00:47:36.911Z,1018.23
2019-06-01T00:48:37.405Z,1018.23
2019-06-01T00:49:36.604Z,1018.20
2019-06-01T00:50:36.575Z,1018.18
2019-06-01T00:51:37.416Z,1018.20
2019-06-01T00:52:36.914Z,1018.18
2019-06-01T00:53:37.390Z,1018.09
2019-06-01T00:54:36.535Z,1018.15
2019-06-01T00:55:36.510Z,1018.19
2019-06-01T00:56:36.511Z,1018.16
2019-06-01T00:57:36.911Z,1018.15
2019-06-01T00:58:36.483Z,1018.23
2019-06-01T00:59:37.411Z,1018.19
2019-06-01T01:00:43.708Z,1018.11
2019-06-01T01:01:36.466Z,1018.13
2019-06-01T01:02:36.904Z,1018.17
2019-06-01T01:03:37.415Z,1018.16
2019-06-01T01:04:36.404Z,1018.23
2019-06-01T01:05:36.397Z,1018.18
2019-06-01T01:06:36.400Z,1018.17
2019-06-01T01:07:38.213Z,1018.15
2019-06-01T01:08:36.903Z,1018.16
2019-06-01T01:09:36.886Z,1018.18
2019-06-01T01:10:36.899Z,1018.13
2019-06-01T01:11:36.883Z,1018.14
2019-06-01T01:12:36.344Z,1018.06
2019-06-01T01:13:36.329Z,1018.05
2019-06-01T01:14:36.887Z,1017.93
2019-06-01T01:15:36.285Z,1018.07
2019-06-01T01:16:36.293Z,1018.07
2019-06-01T01:17:36.281Z,1018.13
2019-06-01T01:18:36.447Z,1018.13
2019-06-01T01:19:36.256Z,1018.17
2019-06-01T01:20:36.253Z,1018.13
2019-06-01T01:21:36.224Z,1018.11
2019-06-01T01:22:36.890Z,1018.15
2019-06-01T01:23:36.265Z,1018.15
2019-06-01T01:24:36.893Z,1018.14
2019-06-01T01:25:36.183Z,1018.07
2019-06-01T01:26:36.167Z,1018.16
2019-06-01T01:27:36.928Z,1018.19
2019-06-01T01:28:36.192Z,1018.16
2019-06-01T01:29:36.895Z,1018.14
2019-06-01T01:30:36.125Z,1018.13
2019-06-01T01:31:36.917Z,1018.15
2019-06-01T01:32:36.109Z,1018.05
2019-06-01T01:33:36.123Z,1018.14
2019-06-01T01:34:36.102Z,1018.15
2019-06-01T01:35:36.115Z,1018.12
2019-06-01T01:36:36.061Z,1018.15
2019-06-01T01:37:36.923Z,1018.14
2019-06-01T01:38:36.433Z,1018.17
2019-06-01T01:39:36.034Z,1018.13
2019-06-01T01:40:36.917Z,1018.15
2019-06-01T01:41:36.019Z,1018.14
2019-06-01T01:42:36.007Z,1018.18
2019-06-01T01:43:36.061Z,1018.18
2019-06-01T01:44:35.989Z,1018.18
2019-06-01T01:45:36.898Z,1018.12
2019-06-01T01:46:36.897Z,1018.14
2019-06-01T01:47:35.960Z,1018.19
2019-06-01T01:48:35.979Z,1018.19
2019-06-01T01:49:36.905Z,1018.13
2019-06-01T01:50:36.914Z,1018.18
2019-06-01T01:51:35.901Z,1018.17
2019-06-01T01:52:35.893Z,1018.17
2019-06-01T01:53:35.934Z,1018.18
2019-06-01T01:54:35.866Z,1018.18
2019-06-01T01:55:35.866Z,1018.13
2019-06-01T01:56:36.404Z,1018.19
2019-06-01T01:57:35.902Z,1018.18
2019-06-01T01:58:35.929Z,1018.16
2019-06-01T01:59:36.396Z,1018.13
2019-06-01T02:00:35.824Z,1018.13
2019-06-01T02:01:35.792Z,1018.04
2019-06-01T02:02:35.781Z,1018.11
2019-06-01T02:03:35.926Z,1018.12
2019-06-01T02:04:35.789Z,1018.12
2019-06-01T02:05:35.761Z,1018.13
2019-06-01T02:06:35.773Z,1018.09
2019-06-01T02:07:35.750Z,1018.07
2019-06-01T02:08:35.931Z,1018.13
2019-06-01T02:09:36.451Z,1018.11
2019-06-01T02:10:35.735Z,1018.15
2019-06-01T02:11:35.711Z,1018.13
2019-06-01T02:12:35.691Z,1018.15
2019-06-01T02:13:35.701Z,1018.10
2019-06-01T02:14:35.720Z,1018.10
2019-06-01T02:15:36.463Z,1018.08
2019-06-01T02:16:36.418Z,1018.08
2019-06-01T02:17:35.657Z,1018.06
2019-06-01T02:18:36.417Z,1018.06
2019-06-01T02:19:36.596Z,1017.99
2019-06-01T02:20:36.409Z,1018.04
2019-06-01T02:21:36.434Z,1018.05
2019-06-01T02:22:35.577Z,1017.98
2019-06-01T02:23:35.589Z,1017.97
2019-06-01T02:24:35.580Z,1018.04
2019-06-01T02:25:35.571Z,1018.02
2019-06-01T02:26:35.543Z,1017.96
2019-06-01T02:27:35.513Z,1018.02
2019-06-01T02:28:36.400Z,1018.04
2019-06-01T02:29:35.945Z,1018.01
2019-06-01T02:30:36.406Z,1017.99
2019-06-01T02:31:41.752Z,1017.97
2019-06-01T02:32:35.478Z,1018.01
2019-06-01T02:33:35.466Z,1017.91
2019-06-01T02:34:35.913Z,1017.89
2019-06-01T02:35:35.431Z,1018.00
2019-06-01T02:36:35.427Z,1017.96
2019-06-01T02:37:35.413Z,1017.93
2019-06-01T02:38:35.911Z,1017.96
2019-06-01T02:39:35.431Z,1018.02
2019-06-01T02:40:35.935Z,1017.98
2019-06-01T02:41:35.910Z,1017.98
2019-06-01T02:42:35.369Z,1017.98
2019-06-01T02:43:35.354Z,1017.83
2019-06-01T02:44:35.382Z,1017.84
2019-06-01T02:45:35.910Z,1017.96
2019-06-01T02:46:35.974Z,1017.88
2019-06-01T02:47:35.306Z,1017.93
2019-06-01T02:48:35.903Z,1017.93
2019-06-01T02:49:35.474Z,1017.80
2019-06-01T02:50:35.270Z,1017.81
2019-06-01T02:51:35.270Z,1017.86
2019-06-01T02:52:35.279Z,1017.85
2019-06-01T02:53:35.904Z,1017.87
2019-06-01T02:54:35.302Z,1017.83
2019-06-01T02:55:35.919Z,1017.90
2019-06-01T02:56:35.218Z,1017.85
2019-06-01T02:57:35.921Z,1017.89
2019-06-01T02:58:35.185Z,1017.93
2019-06-01T02:59:35.179Z,1017.93
2019-06-01T03:00:35.443Z,1017.91
2019-06-01T03:01:35.145Z,1017.87
2019-06-01T03:02:35.139Z,1017.92
2019-06-01T03:03:35.131Z,1017.98
2019-06-01T03:04:35.910Z,1017.92
2019-06-01T03:05:35.137Z,1017.92
2019-06-01T03:06:35.115Z,1017.85
2019-06-01T03:07:35.919Z,1017.91
2019-06-01T03:08:35.903Z,1017.94
2019-06-01T03:09:35.904Z,1017.95
2019-06-01T03:10:35.097Z,1017.97
2019-06-01T03:11:35.905Z,1017.95
2019-06-01T03:12:35.042Z,1017.98
2019-06-01T03:13:35.899Z,1017.97
2019-06-01T03:14:35.901Z,1017.99
2019-06-01T03:15:35.426Z,1017.99
2019-06-01T03:16:35.912Z,1017.92
2019-06-01T03:17:35.907Z,1017.91
2019-06-01T03:18:35.918Z,1017.91
2019-06-01T03:19:34.960Z,1017.94
2019-06-01T03:20:35.437Z,1017.88
2019-06-01T03:21:34.937Z,1017.87
2019-06-01T03:22:35.921Z,1017.89
2019-06-01T03:23:34.911Z,1017.86
2019-06-01T03:24:35.925Z,1017.97
2019-06-01T03:25:34.968Z,1017.91
2019-06-01T03:26:35.406Z,1017.84
2019-06-01T03:27:34.933Z,1017.87
2019-06-01T03:28:34.857Z,1017.88
2019-06-01T03:29:34.853Z,1017.91
2019-06-01T03:30:36.434Z,1017.89
2019-06-01T03:31:35.418Z,1017.94
2019-06-01T03:32:37.119Z,1018.01
2019-06-01T03:33:34.842Z,1018.02
2019-06-01T03:34:34.799Z,1018.03
2019-06-01T03:35:34.947Z,1017.97
2019-06-01T03:36:35.414Z,1018.05
2019-06-01T03:37:35.395Z,1018.08
2019-06-01T03:38:35.399Z,1018.05
2019-06-01T03:39:34.740Z,1018.06
2019-06-01T03:40:34.760Z,1018.13
2019-06-01T03:41:34.731Z,1018.10
2019-06-01T03:42:34.709Z,1017.99
2019-06-01T03:43:35.406Z,1018.00
2019-06-01T03:44:35.409Z,1018.04
2019-06-01T03:45:34.705Z,1018.02
2019-06-01T03:46:34.666Z,1018.06
2019-06-01T03:47:35.402Z,1018.09
2019-06-01T03:48:34.650Z,1018.07
2019-06-01T03:49:34.657Z,1018.11
2019-06-01T03:50:35.013Z,1018.04
2019-06-01T03:51:34.618Z,1018.04
2019-06-01T03:52:35.403Z,1018.01
2019-06-01T03:53:34.586Z,1018.05
2019-06-01T03:54:34.587Z,1018.07
2019-06-01T03:55:34.584Z,1018.05
2019-06-01T03:56:34.552Z,1017.96
2019-06-01T03:57:34.551Z,1018.04
2019-06-01T03:58:34.541Z,1018.04
2019-06-01T03:59:34.540Z,1018.04
2019-06-01T04:00:35.003Z,1017.97
2019-06-01T04:01:35.419Z,1018.06
2019-06-01T04:02:34.514Z,1018.05
2019-06-01T04:03:34.484Z,1018.09
2019-06-01T04:04:34.480Z,1017.98
2019-06-01T04:05:35.416Z,1018.02
2019-06-01T04:06:35.023Z,1018.08
2019-06-01T04:07:38.281Z,1018.05
2019-06-01T04:08:34.437Z,1018.03
2019-06-01T04:09:35.443Z,1018.03
2019-06-01T04:10:34.441Z,1018.03
2019-06-01T04:11:34.447Z,1018.06
2019-06-01T04:12:34.390Z,1018.09
2019-06-01T04:13:34.381Z,1018.08
2019-06-01T04:14:34.383Z,1018.09
2019-06-01T04:15:34.358Z,1018.04
2019-06-01T04:16:34.372Z,1018.14
2019-06-01T04:17:34.349Z,1018.12
2019-06-01T04:18:34.905Z,1018.14
2019-06-01T04:19:34.311Z,1018.10
2019-06-01T04:20:34.350Z,1018.14
2019-06-01T04:21:34.299Z,1018.22
2019-06-01T04:22:34.281Z,1018.16
2019-06-01T04:23:36.450Z,1018.17
2019-06-01T04:24:34.276Z,1018.19
2019-06-01T04:25:34.248Z,1018.17
2019-06-01T04:26:34.456Z,1018.19
2019-06-01T04:27:34.225Z,1018.21
2019-06-01T04:28:34.918Z,1018.24
2019-06-01T04:29:34.912Z,1018.23
2019-06-01T04:30:34.201Z,1018.18
2019-06-01T04:31:34.423Z,1018.17
2019-06-01T04:32:48.795Z,1018.22
2019-06-01T04:33:34.159Z,1018.18
2019-06-01T04:34:35.787Z,1018.21
2019-06-01T04:35:34.150Z,1018.20
2019-06-01T04:36:34.137Z,1018.15
2019-06-01T04:37:34.909Z,1018.17
2019-06-01T04:38:34.132Z,1018.18
2019-06-01T04:39:34.115Z,1018.15
2019-06-01T04:40:34.089Z,1018.17
2019-06-01T04:41:34.425Z,1018.21
2019-06-01T04:42:34.912Z,1018.18
2019-06-01T04:43:34.076Z,1018.15
2019-06-01T04:44:34.058Z,1018.15
2019-06-01T04:45:34.032Z,1018.17
2019-06-01T04:46:34.431Z,1018.18
2019-06-01T04:47:34.021Z,1018.17
2019-06-01T04:48:34.018Z,1018.18
2019-06-01T04:49:33.996Z,1018.13
2019-06-01T04:50:33.988Z,1018.11
2019-06-01T04:51:33.997Z,1018.16
2019-06-01T04:52:34.450Z,1018.04
2019-06-01T04:53:33.941Z,1018.16
2019-06-01T04:54:33.980Z,1018.12
2019-06-01T04:55:34.920Z,1018.16
2019-06-01T04:56:34.909Z,1018.14
2019-06-01T04:57:33.940Z,1018.16
2019-06-01T04:58:33.904Z,1018.18
2019-06-01T04:59:33.883Z,1018.17
2019-06-01T05:00:34.403Z,1018.18
2019-06-01T05:01:34.446Z,1018.15
2019-06-01T05:02:33.963Z,1018.17
2019-06-01T05:03:33.859Z,1018.16
2019-06-01T05:04:33.825Z,1018.17
2019-06-01T05:05:34.425Z,1018.10
2019-06-01T05:06:34.415Z,1018.14
2019-06-01T05:07:33.824Z,1018.11
2019-06-01T05:08:33.790Z,1018.09
2019-06-01T05:09:34.415Z,1018.14
2019-06-01T05:10:34.412Z,1018.14
2019-06-01T05:11:34.407Z,1018.14
2019-06-01T05:12:33.935Z,1018.10
2019-06-01T05:13:33.739Z,1018.13
2019-06-01T05:14:34.428Z,1018.13
2019-06-01T05:15:33.719Z,1018.05
2019-06-01T05:16:34.419Z,1018.09
2019-06-01T05:17:33.929Z,1018.03
2019-06-01T05:18:33.683Z,1018.04
2019-06-01T05:19:33.662Z,1018.04
2019-06-01T05:20:33.660Z,1018.09
2019-06-01T05:21:33.643Z,1017.97
2019-06-01T05:22:33.933Z,1018.06
2019-06-01T05:23:34.426Z,1017.97
2019-06-01T05:24:34.414Z,1018.06
2019-06-01T05:25:34.423Z,1017.99
2019-06-01T05:26:34.419Z,1018.00
2019-06-01T05:27:34.419Z,1018.05
2019-06-01T05:28:33.968Z,1017.99
2019-06-01T05:29:33.559Z,1018.07
2019-06-01T05:30:34.437Z,1018.02
2019-06-01T05:31:34.407Z,1017.92
2019-06-01T05:32:34.423Z,1018.02
2019-06-01T05:33:37.596Z,1018.06
2019-06-01T05:34:33.497Z,1018.02
2019-06-01T05:35:33.503Z,1018.00
2019-06-01T05:36:33.479Z,1018.05
2019-06-01T05:37:33.466Z,1018.05
2019-06-01T05:38:33.486Z,1017.98
2019-06-01T05:39:33.442Z,1018.08
2019-06-01T05:40:33.436Z,1018.01
2019-06-01T05:41:34.407Z,1018.07
2019-06-01T05:42:34.422Z,1018.09
2019-06-01T05:43:33.428Z,1018.04
2019-06-01T05:44:33.943Z,1018.03
2019-06-01T05:45:33.922Z,1018.04
2019-06-01T05:46:33.923Z,1017.94
2019-06-01T05:47:33.353Z,1017.97
2019-06-01T05:48:33.372Z,1018.00
2019-06-01T05:49:33.912Z,1018.02
2019-06-01T05:50:33.327Z,1018.04
2019-06-01T05:51:33.315Z,1018.04
2019-06-01T05:52:33.334Z,1018.06
2019-06-01T05:53:33.327Z,1018.01
2019-06-01T05:54:33.314Z,1018.04
2019-06-01T05:55:33.315Z,1018.03
2019-06-01T05:56:33.917Z,1018.06
2019-06-01T05:57:33.276Z,1018.04
2019-06-01T05:58:33.283Z,1018.04
2019-06-01T05:59:33.234Z,1018.08
2019-06-01T06:00:33.226Z,1018.03
2019-06-01T06:01:33.221Z,1018.06
2019-06-01T06:02:33.927Z,1018.02
2019-06-01T06:03:40.269Z,1018.01
2019-06-01T06:04:33.178Z,1018.02
2019-06-01T06:05:33.180Z,1018.05
2019-06-01T06:06:33.172Z,1018.07
2019-06-01T06:07:33.923Z,1018.05
2019-06-01T06:08:33.449Z,1018.02
2019-06-01T06:09:33.187Z,1018.08
2019-06-01T06:10:33.910Z,1018.09
2019-06-01T06:11:33.109Z,1018.18
2019-06-01T06:12:33.920Z,1018.19
2019-06-01T06:13:33.445Z,1018.21
2019-06-01T06:14:33.091Z,1018.19
2019-06-01T06:15:33.940Z,1018.20
2019-06-01T06:16:33.047Z,1018.21
2019-06-01T06:17:33.040Z,1018.26
2019-06-01T06:18:33.451Z,1018.24
2019-06-01T06:19:33.023Z,1018.26
2019-06-01T06:20:33.922Z,1018.19
2019-06-01T06:21:32.998Z,1018.22
2019-06-01T06:22:33.021Z,1018.23
2019-06-01T06:23:33.010Z,1018.30
2019-06-01T06:24:32.996Z,1018.35
2019-06-01T06:25:34.120Z,1018.37
2019-06-01T06:26:32.940Z,1018.30
2019-06-01T06:27:32.924Z,1018.27
2019-06-01T06:28:32.928Z,1018.24
2019-06-01T06:29:32.927Z,1018.28
2019-06-01T06:30:32.917Z,1018.28
2019-06-01T06:31:32.904Z,1018.25
2019-06-01T06:32:32.887Z,1018.28
2019-06-01T06:33:32.874Z,1018.33
2019-06-01T06:34:32.889Z,1018.28
2019-06-01T06:35:32.855Z,1018.28
2019-06-01T06:36:33.430Z,1018.28
2019-06-01T06:37:33.413Z,1018.29
2019-06-01T06:38:33.422Z,1018.27
2019-06-01T06:39:32.956Z,1018.28
2019-06-01T06:40:32.820Z,1018.31
2019-06-01T06:41:33.431Z,1018.29
2019-06-01T06:42:33.427Z,1018.31
2019-06-01T06:43:33.529Z,1018.30
2019-06-01T06:44:32.765Z,1018.23
2019-06-01T06:45:33.419Z,1018.29
2019-06-01T06:46:32.732Z,1018.23
2019-06-01T06:47:32.725Z,1018.18
2019-06-01T06:48:33.414Z,1018.16
2019-06-01T06:49:32.947Z,1018.19
2019-06-01T06:50:33.435Z,1018.18
2019-06-01T06:51:32.696Z,1018.20
2019-06-01T06:52:32.671Z,1018.23
2019-06-01T06:53:35.291Z,1018.25
2019-06-01T06:54:32.948Z,1018.27
2019-06-01T06:55:32.638Z,1018.27
2019-06-01T06:56:33.437Z,1018.25
2019-06-01T06:57:33.428Z,1018.25
2019-06-01T06:58:32.615Z,1018.20
2019-06-01T06:59:32.610Z,1018.23
2019-06-01T07:00:33.443Z,1018.18
2019-06-01T07:01:32.580Z,1018.21
2019-06-01T07:02:32.566Z,1018.15
2019-06-01T07:03:33.461Z,1018.09
2019-06-01T07:04:32.561Z,1018.16
2019-06-01T07:05:32.946Z,1018.17
2019-06-01T07:06:32.523Z,1018.14
2019-06-01T07:07:33.442Z,1018.01
2019-06-01T07:08:33.432Z,1018.19
2019-06-01T07:09:33.516Z,1018.17
2019-06-01T07:10:32.499Z,1018.07
2019-06-01T07:11:32.454Z,1018.13
2019-06-01T07:12:33.430Z,1018.07
2019-06-01T07:13:32.452Z,1018.10
2019-06-01T07:14:33.449Z,1018.08
2019-06-01T07:15:32.468Z,1018.16
2019-06-01T07:16:32.415Z,1018.16
2019-06-01T07:17:32.409Z,1018.10
2019-06-01T07:18:32.963Z,1018.13
2019-06-01T07:19:32.373Z,1018.14
2019-06-01T07:20:32.409Z,1018.05
2019-06-01T07:21:32.372Z,1018.05
2019-06-01T07:22:32.938Z,1018.01
2019-06-01T07:23:32.951Z,1017.99
2019-06-01T07:24:32.958Z,1018.00
2019-06-01T07:25:33.014Z,1017.91
2019-06-01T07:26:32.947Z,1017.99
2019-06-01T07:27:32.914Z,1018.04
2019-06-01T07:28:32.927Z,1018.02
2019-06-01T07:29:32.536Z,1018.06
2019-06-01T07:30:41.338Z,1018.06
2019-06-01T07:31:32.527Z,1018.00
2019-06-01T07:32:32.971Z,1017.92
2019-06-01T07:33:32.737Z,1018.02
2019-06-01T07:34:40.212Z,1018.00
2019-06-01T07:35:32.598Z,1018.03
2019-06-01T07:36:32.916Z,1018.07
2019-06-01T07:37:32.742Z,1018.08
2019-06-01T07:38:33.252Z,1018.05
2019-06-01T07:39:33.510Z,1017.99
2019-06-01T07:40:33.010Z,1018.04
2019-06-01T07:41:33.125Z,1018.04
2019-06-01T07:42:33.080Z,1018.09
2019-06-01T07:43:33.188Z,1018.06
2019-06-01T07:44:33.252Z,1018.10
2019-06-01T07:45:34.950Z,1018.09
2019-06-01T07:46:33.255Z,1018.05
2019-06-01T07:47:34.010Z,1018.10
2019-06-01T07:48:33.472Z,1018.04
2019-06-01T07:49:32.052Z,1018.01
2019-06-01T07:50:32.262Z,1018.08
2019-06-01T07:51:32.015Z,1018.08
2019-06-01T07:52:32.390Z,1018.10
2019-06-01T07:53:31.995Z,1018.07
2019-06-01T07:54:32.690Z,1018.07
2019-06-01T07:55:31.973Z,1018.06
2019-06-01T07:56:32.843Z,1018.08
2019-06-01T07:57:32.923Z,1018.07
2019-06-01T07:58:32.963Z,1018.08
2019-06-01T07:59:32.485Z,1018.10
2019-06-01T08:00:33.139Z,1018.09
2019-06-01T08:01:32.864Z,1018.11
2019-06-01T08:02:33.007Z,1018.09
2019-06-01T08:03:34.811Z,1018.09
2019-06-01T08:04:51.809Z,1018.10
2019-06-01T08:05:32.192Z,1018.10
2019-06-01T08:06:32.722Z,1018.08
2019-06-01T08:07:32.431Z,1018.07
2019-06-01T08:08:32.418Z,1018.06
2019-06-01T08:09:31.833Z,1018.05
2019-06-01T08:10:31.808Z,1018.08
2019-06-01T08:11:33.361Z,1018.05
2019-06-01T08:12:32.422Z,1018.08
2019-06-01T08:13:35.303Z,1018.09
2019-06-01T08:14:32.858Z,1018.05
2019-06-01T08:15:31.963Z,1018.09
2019-06-01T08:16:32.056Z,1018.07
2019-06-01T08:17:32.426Z,1018.07
2019-06-01T08:18:32.266Z,1018.12
2019-06-01T08:19:32.061Z,1018.11
2019-06-01T08:20:32.236Z,1018.06
2019-06-01T08:21:32.372Z,1018.09
2019-06-01T08:22:32.139Z,1018.05
2019-06-01T08:23:32.524Z,1018.03
2019-06-01T08:24:32.414Z,1018.01
2019-06-01T08:25:32.861Z,1018.04
2019-06-01T08:26:32.649Z,1018.04
2019-06-01T08:27:32.655Z,1018.09
2019-06-01T08:28:32.777Z,1018.04
2019-06-01T08:29:32.842Z,1018.01
2019-06-01T08:30:32.720Z,1018.04
2019-06-01T08:31:32.246Z,1018.01
2019-06-01T08:32:32.783Z,1018.00
2019-06-01T08:33:33.577Z,1017.94
2019-06-01T08:34:33.117Z,1017.97
2019-06-01T08:35:31.535Z,1017.95
2019-06-01T08:36:33.905Z,1018.06
2019-06-01T08:37:31.520Z,1018.02
2019-06-01T08:38:33.808Z,1017.95
2019-06-01T08:39:31.505Z,1018.02
2019-06-01T08:40:31.535Z,1018.03
2019-06-01T08:41:31.580Z,1018.02
2019-06-01T08:42:31.683Z,1017.98
2019-06-01T08:43:31.783Z,1018.01
2019-06-01T08:44:33.678Z,1017.97
2019-06-01T08:45:34.396Z,1017.99
2019-06-01T08:46:31.720Z,1018.00
2019-06-01T08:47:31.960Z,1018.04
2019-06-01T08:48:31.939Z,1017.99
2019-06-01T08:49:32.488Z,1017.98
2019-06-01T08:50:31.932Z,1018.00
2019-06-01T08:51:32.087Z,1018.04
2019-06-01T08:52:32.227Z,1018.06
2019-06-01T08:53:32.210Z,1018.00
2019-06-01T08:54:32.294Z,1018.10
2019-06-01T08:55:32.327Z,1018.02
2019-06-01T08:56:32.297Z,1017.99
2019-06-01T08:57:32.430Z,1018.00
2019-06-01T08:58:32.480Z,1017.99
2019-06-01T08:59:32.546Z,1018.02
2019-06-01T09:00:32.519Z,1018.06
2019-06-01T09:01:32.665Z,1018.01
2019-06-01T09:02:31.270Z,1018.01
2019-06-01T09:03:31.850Z,1018.03
2019-06-01T09:04:32.816Z,1018.04
2019-06-01T09:05:31.526Z,1018.01
2019-06-01T09:06:31.215Z,1017.92
2019-06-01T09:07:31.212Z,1017.97
2019-06-01T09:08:31.185Z,1017.93
2019-06-01T09:09:31.174Z,1017.93
2019-06-01T09:10:31.503Z,1017.94
2019-06-01T09:11:33.223Z,1017.93
2019-06-01T09:12:31.425Z,1017.97
2019-06-01T09:13:31.317Z,1017.94
2019-06-01T09:14:31.389Z,1017.94
2019-06-01T09:15:31.508Z,1017.88
2019-06-01T09:16:31.936Z,1017.87
2019-06-01T09:17:31.528Z,1017.92
2019-06-01T09:18:31.558Z,1017.85
2019-06-01T09:19:31.563Z,1017.79
2019-06-01T09:20:35.441Z,1017.85
2019-06-01T09:21:31.575Z,1017.78
2019-06-01T09:22:31.567Z,1017.85
2019-06-01T09:23:31.678Z,1017.82
2019-06-01T09:24:32.038Z,1017.76
2019-06-01T09:25:31.937Z,1017.77
2019-06-01T09:26:31.990Z,1017.67
2019-06-01T09:27:32.109Z,1017.71
2019-06-01T09:28:31.924Z,1017.80
2019-06-01T09:29:32.111Z,1017.73
2019-06-01T09:30:32.096Z,1017.79
2019-06-01T09:31:32.407Z,1017.76
2019-06-01T09:32:32.071Z,1017.65
2019-06-01T09:33:32.133Z,1017.70
2019-06-01T09:34:30.911Z,1017.67
2019-06-01T09:35:51.272Z,1017.76
2019-06-01T09:36:30.899Z,1017.74
2019-06-01T09:37:30.896Z,1017.73
2019-06-01T09:38:31.561Z,1017.73
2019-06-01T09:39:31.063Z,1017.68
2019-06-01T09:40:32.202Z,1017.72
2019-06-01T09:41:30.845Z,1017.71
2019-06-01T09:42:30.852Z,1017.70
2019-06-01T09:43:31.227Z,1017.78
2019-06-01T09:44:31.972Z,1017.73
2019-06-01T09:45:32.834Z,1017.75
2019-06-01T09:46:32.579Z,1017.70
2019-06-01T09:47:31.023Z,1017.76
2019-06-01T09:48:31.445Z,1017.75
2019-06-01T09:49:32.625Z,1017.75
2019-06-01T09:50:31.348Z,1017.71
2019-06-01T09:51:31.390Z,1017.69
2019-06-01T09:52:31.447Z,1017.77
2019-06-01T09:53:32.428Z,1017.72
2019-06-01T09:54:32.373Z,1017.73
2019-06-01T09:55:32.669Z,1017.76
2019-06-01T09:56:33.502Z,1017.77
2019-06-01T09:57:31.998Z,1017.68
2019-06-01T09:58:30.669Z,1017.75
2019-06-01T09:59:31.847Z,1017.68
2019-06-01T10:00:30.644Z,1017.78
2019-06-01T10:01:30.616Z,1017.73
2019-06-01T10:02:31.973Z,1017.76
2019-06-01T10:03:32.295Z,1017.69
2019-06-01T10:04:30.586Z,1017.73
2019-06-01T10:05:32.409Z,1017.73
2019-06-01T10:06:30.566Z,1017.79
2019-06-01T10:07:30.920Z,1017.72
2019-06-01T10:08:32.414Z,1017.77
2019-06-01T10:09:31.522Z,1017.75
2019-06-01T10:10:31.747Z,1017.76
2019-06-01T10:11:32.485Z,1017.77
2019-06-01T10:12:31.857Z,1017.74
2019-06-01T10:13:30.555Z,1017.73
2019-06-01T10:14:32.093Z,1017.71
2019-06-01T10:15:30.467Z,1017.71
2019-06-01T10:16:30.535Z,1017.67
2019-06-01T10:17:30.825Z,1017.67
2019-06-01T10:18:32.607Z,1017.70
2019-06-01T10:19:30.681Z,1017.71
2019-06-01T10:20:30.929Z,1017.65
2019-06-01T10:21:32.013Z,1017.60
2019-06-01T10:22:30.952Z,1017.68
2019-06-01T10:23:32.242Z,1017.68
2019-06-01T10:24:31.047Z,1017.63
2019-06-01T10:25:32.288Z,1017.62
2019-06-01T10:26:31.313Z,1017.62
2019-06-01T10:27:30.357Z,1017.63
2019-06-01T10:28:31.500Z,1017.57
2019-06-01T10:29:30.554Z,1017.60
2019-06-01T10:30:31.668Z,1017.61
2019-06-01T10:31:30.934Z,1017.58
2019-06-01T10:32:32.366Z,1017.55
2019-06-01T10:33:30.943Z,1017.59
2019-06-01T10:34:31.468Z,1017.60
2019-06-01T10:35:30.752Z,1017.57
2019-06-01T10:36:31.910Z,1017.54
2019-06-01T10:37:31.327Z,1017.54
2019-06-01T10:38:31.131Z,1017.62
2019-06-01T10:39:31.242Z,1017.60
2019-06-01T10:40:31.234Z,1017.61
2019-06-01T10:41:31.284Z,1017.61
2019-06-01T10:42:32.726Z,1017.62
2019-06-01T10:43:31.412Z,1017.61
2019-06-01T10:44:31.501Z,1017.61
2019-06-01T10:45:31.662Z,1017.55
2019-06-01T10:46:31.713Z,1017.59
2019-06-01T10:47:30.125Z,1017.54
2019-06-01T10:48:30.131Z,1017.45
2019-06-01T10:49:30.114Z,1017.42
2019-06-01T10:50:30.088Z,1017.44
2019-06-01T10:51:32.071Z,1017.46
2019-06-01T10:52:30.070Z,1017.46
2019-06-01T10:53:30.073Z,1017.39
2019-06-01T10:54:30.058Z,1017.42
2019-06-01T10:55:30.067Z,1017.49
2019-06-01T10:56:32.232Z,1017.44
2019-06-01T10:57:32.251Z,1017.47
2019-06-01T10:58:30.062Z,1017.44
2019-06-01T10:59:30.002Z,1017.45
2019-06-01T11:00:39.740Z,1017.38
2019-06-01T11:01:32.388Z,1017.46
2019-06-01T11:02:29.962Z,1017.43
2019-06-01T11:03:29.961Z,1017.43
2019-06-01T11:04:30.525Z,1017.44
2019-06-01T11:05:29.928Z,1017.44
2019-06-01T11:06:37.765Z,1017.45
2019-06-01T11:07:29.911Z,1017.43
2019-06-01T11:08:29.906Z,1017.41
2019-06-01T11:09:29.882Z,1017.37
2019-06-01T11:10:29.897Z,1017.36
2019-06-01T11:11:29.864Z,1017.33
2019-06-01T11:12:29.852Z,1017.29
2019-06-01T11:13:30.445Z,1017.32
2019-06-01T11:14:29.831Z,1017.32
2019-06-01T11:15:29.839Z,1017.29
2019-06-01T11:16:30.437Z,1017.33
2019-06-01T11:17:29.877Z,1017.33
2019-06-01T11:18:30.456Z,1017.32
2019-06-01T11:19:29.783Z,1017.32
2019-06-01T11:20:29.775Z,1017.26
2019-06-01T11:21:29.754Z,1017.29
2019-06-01T11:22:29.746Z,1017.21
2019-06-01T11:23:29.745Z,1017.29
2019-06-01T11:24:29.744Z,1017.23
2019-06-01T11:25:29.947Z,1017.28
2019-06-01T11:26:30.648Z,1017.25
2019-06-01T11:27:29.689Z,1017.27
2019-06-01T11:28:29.693Z,1017.20
2019-06-01T11:29:30.436Z,1017.17
2019-06-01T11:30:29.675Z,1017.20
2019-06-01T11:31:29.646Z,1017.17
2019-06-01T11:32:29.636Z,1017.17
2019-06-01T11:33:29.636Z,1017.18
2019-06-01T11:34:29.624Z,1017.20
2019-06-01T11:35:29.970Z,1017.18
2019-06-01T11:36:30.438Z,1017.19
2019-06-01T11:37:29.583Z,1017.18
2019-06-01T11:38:30.440Z,1017.17
2019-06-01T11:39:29.562Z,1017.22
2019-06-01T11:40:29.551Z,1017.18
2019-06-01T11:41:29.959Z,1017.07
2019-06-01T11:42:29.535Z,1017.10
2019-06-01T11:43:29.515Z,1017.15
2019-06-01T11:44:29.509Z,1017.09
2019-06-01T11:45:29.507Z,1016.96
2019-06-01T11:46:29.515Z,1016.99
2019-06-01T11:47:29.481Z,1017.04
2019-06-01T11:48:29.466Z,1016.99
2019-06-01T11:49:29.484Z,1017.00
2019-06-01T11:50:29.443Z,1016.94
2019-06-01T11:51:29.441Z,1017.05
2019-06-01T11:52:29.432Z,1017.01
2019-06-01T11:53:29.415Z,1017.02
2019-06-01T11:54:29.416Z,1016.92
2019-06-01T11:55:29.393Z,1016.97
2019-06-01T11:56:29.469Z,1016.95
2019-06-01T11:57:29.377Z,1016.98
2019-06-01T11:58:29.358Z,1016.97
2019-06-01T11:59:29.953Z,1016.91
2019-06-01T12:00:29.938Z,1016.84
2019-06-01T12:01:29.345Z,1016.90
2019-06-01T12:02:29.313Z,1016.90
2019-06-01T12:03:29.303Z,1016.88
2019-06-01T12:04:29.989Z,1016.92
2019-06-01T12:05:29.309Z,1016.88